sensor_id;sensor_type;location;lat;lon;timestamp;P1;durP1;ratioP1;P2;durP2;ratioP2
317;SDS011;146;53.448;10.228;2023-06-26T00:00:10;16.40;;;15.27;;
317;SDS011;146;53.448;10.228;2023-06-26T00:02:40;17.03;;;15.93;;
317;SDS011;146;53.448;10.228;2023-06-26T00:05:07;17.60;;;16.40;;
317;SDS011;146;53.448;10.228;2023-06-26T00:07:36;17.50;;;16.40;;
317;SDS011;146;53.448;10.228;2023-06-26T00:10:04;17.00;;;15.90;;
317;SDS011;146;53.448;10.228;2023-06-26T00:12:34;17.83;;;16.73;;
317;SDS011;146;53.448;10.228;2023-06-26T00:15:01;19.23;;;18.03;;
317;SDS011;146;53.448;10.228;2023-06-26T00:17:33;17.23;;;15.93;;
317;SDS011;146;53.448;10.228;2023-06-26T00:20:02;16.90;;;15.80;;
317;SDS011;146;53.448;10.228;2023-06-26T00:22:30;16.50;;;15.40;;
317;SDS011;146;53.448;10.228;2023-06-26T00:24:57;18.50;;;17.20;;
317;SDS011;146;53.448;10.228;2023-06-26T00:27:23;17.53;;;16.43;;
317;SDS011;146;53.448;10.228;2023-06-26T00:30:13;17.33;;;16.13;;
317;SDS011;146;53.448;10.228;2023-06-26T00:32:43;18.60;;;17.43;;
317;SDS011;146;53.448;10.228;2023-06-26T00:35:11;18.33;;;17.03;;
317;SDS011;146;53.448;10.228;2023-06-26T00:37:38;18.97;;;17.67;;
317;SDS011;146;53.448;10.228;2023-06-26T00:40:13;17.90;;;16.70;;
317;SDS011;146;53.448;10.228;2023-06-26T00:42:47;18.27;;;17.10;;
317;SDS011;146;53.448;10.228;2023-06-26T00:45:26;19.80;;;18.40;;
317;SDS011;146;53.448;10.228;2023-06-26T00:47:56;19.30;;;18.00;;
317;SDS011;146;53.448;10.228;2023-06-26T00:50:23;19.60;;;18.30;;
317;SDS011;146;53.448;10.228;2023-06-26T00:52:54;17.67;;;16.47;;
317;SDS011;146;53.448;10.228;2023-06-26T00:55:32;18.87;;;17.53;;
317;SDS011;146;53.448;10.228;2023-06-26T00:58:05;19.87;;;18.37;;
317;SDS011;146;53.448;10.228;2023-06-26T01:00:33;19.23;;;17.93;;
317;SDS011;146;53.448;10.228;2023-06-26T01:03:00;20.03;;;18.63;;
317;SDS011;146;53.448;10.228;2023-06-26T01:05:27;19.57;;;18.17;;
317;SDS011;146;53.448;10.228;2023-06-26T01:07:54;19.10;;;17.70;;
317;SDS011;146;53.448;10.228;2023-06-26T01:10:31;20.00;;;18.60;;
317;SDS011;146;53.448;10.228;2023-06-26T01:13:04;20.93;;;19.63;;
317;SDS011;146;53.448;10.228;2023-06-26T01:15:31;20.50;;;18.90;;
317;SDS011;146;53.448;10.228;2023-06-26T01:18:12;18.97;;;17.53;;
317;SDS011;146;53.448;10.228;2023-06-26T01:20:40;18.97;;;17.77;;
317;SDS011;146;53.448;10.228;2023-06-26T01:23:12;17.80;;;16.53;;
317;SDS011;146;53.448;10.228;2023-06-26T01:25:52;19.20;;;17.90;;
317;SDS011;146;53.448;10.228;2023-06-26T01:28:30;17.23;;;16.03;;
317;SDS011;146;53.448;10.228;2023-06-26T01:31:01;16.63;;;15.40;;
317;SDS011;146;53.448;10.228;2023-06-26T01:33:32;18.27;;;16.87;;
317;SDS011;146;53.448;10.228;2023-06-26T01:35:59;17.87;;;16.60;;
317;SDS011;146;53.448;10.228;2023-06-26T01:38:28;18.07;;;16.87;;
317;SDS011;146;53.448;10.228;2023-06-26T01:41:10;18.70;;;17.40;;
317;SDS011;146;53.448;10.228;2023-06-26T01:43:41;21.13;;;19.70;;
317;SDS011;146;53.448;10.228;2023-06-26T01:46:22;18.90;;;17.60;;
317;SDS011;146;53.448;10.228;2023-06-26T01:48:55;19.20;;;17.60;;
317;SDS011;146;53.448;10.228;2023-06-26T01:51:35;18.10;;;16.80;;
317;SDS011;146;53.448;10.228;2023-06-26T01:54:06;17.90;;;16.70;;
317;SDS011;146;53.448;10.228;2023-06-26T01:56:43;17.40;;;16.30;;
317;SDS011;146;53.448;10.228;2023-06-26T01:59:13;17.50;;;16.40;;
317;SDS011;146;53.448;10.228;2023-06-26T02:01:43;17.57;;;16.43;;
317;SDS011;146;53.448;10.228;2023-06-26T02:04:13;17.97;;;16.77;;
317;SDS011;146;53.448;10.228;2023-06-26T02:06:40;18.30;;;16.73;;
317;SDS011;146;53.448;10.228;2023-06-26T02:09:18;17.20;;;16.00;;
317;SDS011;146;53.448;10.228;2023-06-26T02:11:48;18.33;;;17.10;;
317;SDS011;146;53.448;10.228;2023-06-26T02:14:18;18.43;;;17.23;;
317;SDS011;146;53.448;10.228;2023-06-26T02:16:51;17.50;;;16.40;;
317;SDS011;146;53.448;10.228;2023-06-26T02:19:18;18.30;;;16.90;;
317;SDS011;146;53.448;10.228;2023-06-26T02:21:46;17.30;;;16.00;;
317;SDS011;146;53.448;10.228;2023-06-26T02:24:14;16.47;;;15.47;;
317;SDS011;146;53.448;10.228;2023-06-26T02:26:44;17.87;;;16.67;;
317;SDS011;146;53.448;10.228;2023-06-26T02:29:13;16.30;;;15.20;;
317;SDS011;146;53.448;10.228;2023-06-26T02:31:42;16.97;;;15.53;;
317;SDS011;146;53.448;10.228;2023-06-26T02:34:09;16.00;;;14.90;;
317;SDS011;146;53.448;10.228;2023-06-26T02:36:42;15.87;;;14.87;;
317;SDS011;146;53.448;10.228;2023-06-26T02:39:09;16.73;;;15.50;;
317;SDS011;146;53.448;10.228;2023-06-26T02:41:35;17.50;;;16.30;;
317;SDS011;146;53.448;10.228;2023-06-26T02:44:09;17.40;;;16.20;;
317;SDS011;146;53.448;10.228;2023-06-26T02:46:41;16.03;;;14.90;;
317;SDS011;146;53.448;10.228;2023-06-26T02:49:08;16.00;;;14.90;;
317;SDS011;146;53.448;10.228;2023-06-26T02:51:41;16.70;;;15.50;;
317;SDS011;146;53.448;10.228;2023-06-26T02:54:08;16.23;;;15.13;;
317;SDS011;146;53.448;10.228;2023-06-26T02:56:34;15.63;;;14.43;;
317;SDS011;146;53.448;10.228;2023-06-26T02:59:01;15.43;;;14.50;;
317;SDS011;146;53.448;10.228;2023-06-26T03:01:28;16.27;;;15.17;;
317;SDS011;146;53.448;10.228;2023-06-26T03:03:57;16.70;;;15.60;;
317;SDS011;146;53.448;10.228;2023-06-26T03:06:25;17.27;;;15.80;;
317;SDS011;146;53.448;10.228;2023-06-26T03:08:55;17.10;;;15.90;;
317;SDS011;146;53.448;10.228;2023-06-26T03:11:21;18.27;;;17.03;;
317;SDS011;146;53.448;10.228;2023-06-26T03:13:57;15.73;;;14.43;;
317;SDS011;146;53.448;10.228;2023-06-26T03:16:24;16.30;;;15.10;;
317;SDS011;146;53.448;10.228;2023-06-26T03:18:51;15.23;;;14.13;;
317;SDS011;146;53.448;10.228;2023-06-26T03:21:19;15.93;;;14.73;;
317;SDS011;146;53.448;10.228;2023-06-26T03:23:52;16.37;;;15.10;;
317;SDS011;146;53.448;10.228;2023-06-26T03:26:21;15.70;;;14.60;;
317;SDS011;146;53.448;10.228;2023-06-26T03:28:52;16.03;;;14.80;;
317;SDS011;146;53.448;10.228;2023-06-26T03:31:21;15.93;;;14.80;;
317;SDS011;146;53.448;10.228;2023-06-26T03:33:53;15.43;;;14.30;;
317;SDS011;146;53.448;10.228;2023-06-26T03:36:27;15.80;;;14.50;;
317;SDS011;146;53.448;10.228;2023-06-26T03:38:54;16.00;;;14.80;;
317;SDS011;146;53.448;10.228;2023-06-26T03:41:22;16.90;;;15.77;;
317;SDS011;146;53.448;10.228;2023-06-26T03:43:51;15.43;;;14.43;;
317;SDS011;146;53.448;10.228;2023-06-26T03:46:30;15.50;;;14.50;;
317;SDS011;146;53.448;10.228;2023-06-26T03:48:57;14.77;;;13.37;;
317;SDS011;146;53.448;10.228;2023-06-26T03:51:31;15.57;;;14.37;;
317;SDS011;146;53.448;10.228;2023-06-26T03:53:57;16.00;;;14.90;;
317;SDS011;146;53.448;10.228;2023-06-26T03:56:27;16.07;;;14.67;;
317;SDS011;146;53.448;10.228;2023-06-26T03:58:57;15.23;;;13.87;;
317;SDS011;146;53.448;10.228;2023-06-26T04:01:27;15.33;;;14.23;;
317;SDS011;146;53.448;10.228;2023-06-26T04:03:53;15.30;;;14.20;;
317;SDS011;146;53.448;10.228;2023-06-26T04:06:23;16.03;;;14.70;;
317;SDS011;146;53.448;10.228;2023-06-26T04:08:51;14.03;;;13.03;;
317;SDS011;146;53.448;10.228;2023-06-26T04:11:18;15.50;;;14.50;;
317;SDS011;146;53.448;10.228;2023-06-26T04:13:45;15.23;;;14.20;;
317;SDS011;146;53.448;10.228;2023-06-26T04:16:12;14.60;;;13.60;;
317;SDS011;146;53.448;10.228;2023-06-26T04:18:42;15.40;;;14.37;;
317;SDS011;146;53.448;10.228;2023-06-26T04:21:12;14.50;;;13.50;;
317;SDS011;146;53.448;10.228;2023-06-26T04:23:42;15.67;;;14.57;;
317;SDS011;146;53.448;10.228;2023-06-26T04:26:16;14.73;;;13.73;;
317;SDS011;146;53.448;10.228;2023-06-26T04:28:43;13.63;;;12.73;;
317;SDS011;146;53.448;10.228;2023-06-26T04:31:22;14.63;;;13.63;;
317;SDS011;146;53.448;10.228;2023-06-26T04:33:49;15.17;;;14.07;;
317;SDS011;146;53.448;10.228;2023-06-26T04:36:20;15.43;;;14.10;;
317;SDS011;146;53.448;10.228;2023-06-26T04:38:53;15.33;;;14.13;;
317;SDS011;146;53.448;10.228;2023-06-26T04:41:29;14.13;;;13.20;;
317;SDS011;146;53.448;10.228;2023-06-26T04:43:56;15.73;;;14.53;;
317;SDS011;146;53.448;10.228;2023-06-26T04:46:29;14.20;;;13.20;;
317;SDS011;146;53.448;10.228;2023-06-26T04:48:55;15.33;;;14.13;;
317;SDS011;146;53.448;10.228;2023-06-26T04:51:23;14.77;;;13.77;;
317;SDS011;146;53.448;10.228;2023-06-26T04:53:53;14.97;;;13.87;;
317;SDS011;146;53.448;10.228;2023-06-26T04:56:26;15.63;;;14.37;;
317;SDS011;146;53.448;10.228;2023-06-26T04:58:58;14.37;;;13.37;;
317;SDS011;146;53.448;10.228;2023-06-26T05:01:25;13.33;;;12.43;;
317;SDS011;146;53.448;10.228;2023-06-26T05:03:57;14.50;;;13.50;;
317;SDS011;146;53.448;10.228;2023-06-26T05:06:24;15.50;;;14.23;;
317;SDS011;146;53.448;10.228;2023-06-26T05:08:55;15.00;;;13.90;;
317;SDS011;146;53.448;10.228;2023-06-26T05:11:29;13.60;;;12.70;;
317;SDS011;146;53.448;10.228;2023-06-26T05:14:02;15.00;;;13.90;;
317;SDS011;146;53.448;10.228;2023-06-26T05:16:28;14.60;;;13.60;;
317;SDS011;146;53.448;10.228;2023-06-26T05:18:58;14.43;;;13.47;;
317;SDS011;146;53.448;10.228;2023-06-26T05:21:25;14.43;;;13.40;;
317;SDS011;146;53.448;10.228;2023-06-26T05:23:52;13.03;;;12.13;;
317;SDS011;146;53.448;10.228;2023-06-26T05:26:23;13.40;;;12.40;;
317;SDS011;146;53.448;10.228;2023-06-26T05:28:54;14.33;;;13.30;;
317;SDS011;146;53.448;10.228;2023-06-26T05:31:27;13.80;;;12.60;;
317;SDS011;146;53.448;10.228;2023-06-26T05:33:57;12.70;;;11.80;;
317;SDS011;146;53.448;10.228;2023-06-26T05:39:42;14.03;;;13.03;;
317;SDS011;146;53.448;10.228;2023-06-26T05:42:18;13.57;;;12.57;;
317;SDS011;146;53.448;10.228;2023-06-26T05:45:47;13.93;;;13.00;;
317;SDS011;146;53.448;10.228;2023-06-26T05:48:14;15.17;;;13.90;;
317;SDS011;146;53.448;10.228;2023-06-26T05:50:42;13.60;;;12.60;;
317;SDS011;146;53.448;10.228;2023-06-26T05:53:13;12.87;;;11.97;;
317;SDS011;146;53.448;10.228;2023-06-26T05:55:46;13.40;;;12.40;;
317;SDS011;146;53.448;10.228;2023-06-26T05:58:14;13.23;;;12.40;;
317;SDS011;146;53.448;10.228;2023-06-26T06:00:42;13.53;;;12.57;;
317;SDS011;146;53.448;10.228;2023-06-26T06:03:11;12.53;;;11.67;;
317;SDS011;146;53.448;10.228;2023-06-26T06:05:38;13.47;;;12.47;;
317;SDS011;146;53.448;10.228;2023-06-26T06:08:05;13.20;;;12.23;;
317;SDS011;146;53.448;10.228;2023-06-26T06:10:37;12.27;;;11.47;;
317;SDS011;146;53.448;10.228;2023-06-26T06:13:09;12.20;;;11.40;;
317;SDS011;146;53.448;10.228;2023-06-26T06:15:39;13.17;;;12.20;;
317;SDS011;146;53.448;10.228;2023-06-26T06:18:06;13.37;;;12.37;;
317;SDS011;146;53.448;10.228;2023-06-26T06:20:34;12.93;;;11.93;;
317;SDS011;146;53.448;10.228;2023-06-26T06:23:01;12.20;;;11.40;;
317;SDS011;146;53.448;10.228;2023-06-26T06:25:34;12.40;;;11.53;;
317;SDS011;146;53.448;10.228;2023-06-26T06:28:01;12.73;;;11.80;;
317;SDS011;146;53.448;10.228;2023-06-26T06:30:28;12.20;;;11.20;;
317;SDS011;146;53.448;10.228;2023-06-26T06:32:54;12.67;;;11.77;;
317;SDS011;146;53.448;10.228;2023-06-26T06:35:21;12.27;;;11.47;;
317;SDS011;146;53.448;10.228;2023-06-26T06:37:49;11.00;;;10.23;;
317;SDS011;146;53.448;10.228;2023-06-26T06:40:22;11.23;;;10.43;;
317;SDS011;146;53.448;10.228;2023-06-26T06:42:50;10.70;;;10.00;;
317;SDS011;146;53.448;10.228;2023-06-26T06:45:25;11.20;;;10.20;;
317;SDS011;146;53.448;10.228;2023-06-26T06:47:55;10.10;;;9.40;;
317;SDS011;146;53.448;10.228;2023-06-26T06:50:22;9.57;;;8.97;;
317;SDS011;146;53.448;10.228;2023-06-26T06:52:50;10.53;;;9.93;;
317;SDS011;146;53.448;10.228;2023-06-26T06:55:17;11.13;;;10.40;;
317;SDS011;146;53.448;10.228;2023-06-26T06:57:55;10.30;;;9.50;;
317;SDS011;146;53.448;10.228;2023-06-26T07:00:24;9.63;;;9.03;;
317;SDS011;146;53.448;10.228;2023-06-26T07:02:52;11.80;;;10.90;;
317;SDS011;146;53.448;10.228;2023-06-26T07:05:19;10.40;;;9.70;;
317;SDS011;146;53.448;10.228;2023-06-26T07:07:50;10.13;;;9.47;;
317;SDS011;146;53.448;10.228;2023-06-26T07:10:17;11.00;;;9.90;;
317;SDS011;146;53.448;10.228;2023-06-26T07:12:54;10.97;;;10.17;;
317;SDS011;146;53.448;10.228;2023-06-26T07:15:21;10.07;;;9.33;;
317;SDS011;146;53.448;10.228;2023-06-26T07:17:48;10.93;;;10.13;;
317;SDS011;146;53.448;10.228;2023-06-26T07:20:14;10.87;;;10.10;;
317;SDS011;146;53.448;10.228;2023-06-26T07:22:42;10.33;;;9.63;;
317;SDS011;146;53.448;10.228;2023-06-26T07:25:14;10.40;;;9.60;;
317;SDS011;146;53.448;10.228;2023-06-26T07:27:47;10.23;;;9.53;;
317;SDS011;146;53.448;10.228;2023-06-26T07:30:17;9.73;;;8.97;;
317;SDS011;146;53.448;10.228;2023-06-26T07:32:46;9.83;;;9.10;;
317;SDS011;146;53.448;10.228;2023-06-26T07:35:13;10.30;;;9.50;;
317;SDS011;146;53.448;10.228;2023-06-26T07:37:41;11.23;;;10.50;;
317;SDS011;146;53.448;10.228;2023-06-26T07:40:11;10.37;;;9.57;;
317;SDS011;146;53.448;10.228;2023-06-26T07:42:39;9.83;;;9.03;;
317;SDS011;146;53.448;10.228;2023-06-26T07:45:16;9.77;;;9.17;;
317;SDS011;146;53.448;10.228;2023-06-26T07:47:43;9.40;;;8.80;;
317;SDS011;146;53.448;10.228;2023-06-26T07:50:13;10.33;;;9.53;;
317;SDS011;146;53.448;10.228;2023-06-26T07:52:44;9.17;;;8.57;;
317;SDS011;146;53.448;10.228;2023-06-26T07:55:11;10.03;;;9.43;;
317;SDS011;146;53.448;10.228;2023-06-26T07:57:43;9.90;;;9.10;;
317;SDS011;146;53.448;10.228;2023-06-26T08:00:11;10.63;;;9.63;;
317;SDS011;146;53.448;10.228;2023-06-26T08:02:38;9.33;;;8.50;;
317;SDS011;146;53.448;10.228;2023-06-26T08:05:05;8.70;;;8.00;;
317;SDS011;146;53.448;10.228;2023-06-26T08:07:32;9.97;;;9.27;;
317;SDS011;146;53.448;10.228;2023-06-26T08:10:12;10.30;;;9.37;;
317;SDS011;146;53.448;10.228;2023-06-26T08:12:51;9.73;;;9.13;;
317;SDS011;146;53.448;10.228;2023-06-26T08:15:27;9.30;;;8.70;;
317;SDS011;146;53.448;10.228;2023-06-26T08:18:11;9.30;;;8.70;;
317;SDS011;146;53.448;10.228;2023-06-26T08:20:38;9.60;;;8.90;;
317;SDS011;146;53.448;10.228;2023-06-26T08:23:13;9.27;;;8.47;;
317;SDS011;146;53.448;10.228;2023-06-26T08:25:51;10.13;;;9.43;;
317;SDS011;146;53.448;10.228;2023-06-26T08:28:25;9.50;;;8.90;;
317;SDS011;146;53.448;10.228;2023-06-26T08:30:55;9.63;;;8.90;;
317;SDS011;146;53.448;10.228;2023-06-26T08:33:29;9.23;;;8.53;;
317;SDS011;146;53.448;10.228;2023-06-26T08:36:05;9.10;;;8.43;;
317;SDS011;146;53.448;10.228;2023-06-26T08:38:41;9.00;;;8.40;;
317;SDS011;146;53.448;10.228;2023-06-26T08:41:08;9.83;;;8.93;;
317;SDS011;146;53.448;10.228;2023-06-26T08:43:45;10.10;;;9.33;;
317;SDS011;146;53.448;10.228;2023-06-26T08:46:15;9.27;;;8.67;;
317;SDS011;146;53.448;10.228;2023-06-26T08:48:54;9.40;;;8.70;;
317;SDS011;146;53.448;10.228;2023-06-26T08:51:24;10.80;;;10.00;;
317;SDS011;146;53.448;10.228;2023-06-26T08:53:56;10.37;;;9.40;;
317;SDS011;146;53.448;10.228;2023-06-26T08:56:28;9.53;;;8.80;;
317;SDS011;146;53.448;10.228;2023-06-26T08:59:02;10.10;;;9.40;;
317;SDS011;146;53.448;10.228;2023-06-26T09:01:31;10.87;;;10.10;;
317;SDS011;146;53.448;10.228;2023-06-26T09:04:01;10.00;;;9.30;;
317;SDS011;146;53.448;10.228;2023-06-26T09:06:30;10.13;;;9.53;;
317;SDS011;146;53.448;10.228;2023-06-26T09:09:03;9.93;;;9.10;;
317;SDS011;146;53.448;10.228;2023-06-26T09:11:30;11.73;;;10.73;;
317;SDS011;146;53.448;10.228;2023-06-26T09:14:06;10.70;;;10.00;;
317;SDS011;146;53.448;10.228;2023-06-26T09:16:38;10.30;;;9.30;;
317;SDS011;146;53.448;10.228;2023-06-26T09:19:08;10.20;;;9.40;;
317;SDS011;146;53.448;10.228;2023-06-26T09:21:36;9.40;;;8.80;;
317;SDS011;146;53.448;10.228;2023-06-26T09:24:04;9.90;;;9.20;;
317;SDS011;146;53.448;10.228;2023-06-26T09:26:33;10.07;;;9.27;;
317;SDS011;146;53.448;10.228;2023-06-26T09:29:03;10.20;;;9.40;;
317;SDS011;146;53.448;10.228;2023-06-26T09:31:32;10.33;;;9.53;;
317;SDS011;146;53.448;10.228;2023-06-26T09:34:11;10.77;;;9.83;;
317;SDS011;146;53.448;10.228;2023-06-26T09:36:40;10.97;;;10.20;;
317;SDS011;146;53.448;10.228;2023-06-26T09:39:11;13.40;;;12.10;;
317;SDS011;146;53.448;10.228;2023-06-26T09:41:40;11.90;;;11.10;;
317;SDS011;146;53.448;10.228;2023-06-26T09:44:10;12.63;;;11.63;;
317;SDS011;146;53.448;10.228;2023-06-26T09:46:38;12.67;;;11.70;;
317;SDS011;146;53.448;10.228;2023-06-26T09:49:09;12.43;;;11.47;;
317;SDS011;146;53.448;10.228;2023-06-26T09:51:38;12.70;;;11.53;;
317;SDS011;146;53.448;10.228;2023-06-26T09:54:06;12.43;;;11.63;;
317;SDS011;146;53.448;10.228;2023-06-26T09:56:37;11.57;;;10.87;;
317;SDS011;146;53.448;10.228;2023-06-26T09:59:04;13.77;;;12.67;;
317;SDS011;146;53.448;10.228;2023-06-26T10:01:40;14.37;;;13.30;;
317;SDS011;146;53.448;10.228;2023-06-26T10:04:12;15.47;;;14.00;;
317;SDS011;146;53.448;10.228;2023-06-26T10:06:41;14.33;;;13.33;;
317;SDS011;146;53.448;10.228;2023-06-26T10:09:24;13.87;;;12.60;;
317;SDS011;146;53.448;10.228;2023-06-26T10:11:57;14.03;;;12.27;;
317;SDS011;146;53.448;10.228;2023-06-26T10:14:31;15.63;;;14.33;;
317;SDS011;146;53.448;10.228;2023-06-26T10:17:06;15.77;;;14.57;;
317;SDS011;146;53.448;10.228;2023-06-26T10:19:43;15.60;;;14.03;;
317;SDS011;146;53.448;10.228;2023-06-26T10:22:11;14.13;;;13.03;;
317;SDS011;146;53.448;10.228;2023-06-26T10:24:41;14.80;;;13.70;;
317;SDS011;146;53.448;10.228;2023-06-26T10:27:16;14.70;;;13.60;;
317;SDS011;146;53.448;10.228;2023-06-26T10:29:44;16.40;;;15.00;;
317;SDS011;146;53.448;10.228;2023-06-26T10:32:19;15.83;;;14.73;;
317;SDS011;146;53.448;10.228;2023-06-26T10:34:47;10.83;;;9.70;;
317;SDS011;146;53.448;10.228;2023-06-26T10:37:14;11.37;;;8.70;;
317;SDS011;146;53.448;10.228;2023-06-26T10:39:47;9.47;;;7.80;;
317;SDS011;146;53.448;10.228;2023-06-26T10:42:16;7.67;;;6.93;;
317;SDS011;146;53.448;10.228;2023-06-26T10:44:44;8.50;;;7.20;;
317;SDS011;146;53.448;10.228;2023-06-26T10:47:13;8.47;;;7.77;;
317;SDS011;146;53.448;10.228;2023-06-26T10:50:13;10.70;;;7.53;;
317;SDS011;146;53.448;10.228;2023-06-26T10:55:47;9.50;;;8.70;;
317;SDS011;146;53.448;10.228;2023-06-26T10:58:32;10.10;;;9.07;;
317;SDS011;146;53.448;10.228;2023-06-26T11:04:05;8.50;;;7.80;;
317;SDS011;146;53.448;10.228;2023-06-26T11:06:44;9.67;;;8.80;;
317;SDS011;146;53.448;10.228;2023-06-26T11:10:00;10.03;;;9.10;;
317;SDS011;146;53.448;10.228;2023-06-26T11:12:43;11.03;;;10.10;;
317;SDS011;146;53.448;10.228;2023-06-26T11:15:13;11.90;;;10.83;;
317;SDS011;146;53.448;10.228;2023-06-26T11:17:42;12.97;;;11.97;;
317;SDS011;146;53.448;10.228;2023-06-26T11:20:18;13.50;;;12.40;;
317;SDS011;146;53.448;10.228;2023-06-26T11:22:45;13.90;;;12.70;;
317;SDS011;146;53.448;10.228;2023-06-26T11:25:15;16.17;;;14.97;;
317;SDS011;146;53.448;10.228;2023-06-26T11:27:42;17.97;;;16.57;;
317;SDS011;146;53.448;10.228;2023-06-26T11:30:22;22.57;;;20.73;;
317;SDS011;146;53.448;10.228;2023-06-26T11:33:02;22.27;;;20.47;;
317;SDS011;146;53.448;10.228;2023-06-26T11:35:31;23.07;;;21.07;;
317;SDS011;146;53.448;10.228;2023-06-26T11:37:58;19.70;;;18.30;;
317;SDS011;146;53.448;10.228;2023-06-26T11:40:33;20.80;;;19.00;;
317;SDS011;146;53.448;10.228;2023-06-26T11:43:30;16.97;;;15.50;;
317;SDS011;146;53.448;10.228;2023-06-26T11:46:00;14.13;;;12.83;;
317;SDS011;146;53.448;10.228;2023-06-26T11:48:30;12.20;;;11.20;;
317;SDS011;146;53.448;10.228;2023-06-26T11:51:12;10.83;;;9.93;;
317;SDS011;146;53.448;10.228;2023-06-26T11:53:39;10.10;;;9.30;;
317;SDS011;146;53.448;10.228;2023-06-26T11:56:15;10.40;;;9.67;;
317;SDS011;146;53.448;10.228;2023-06-26T12:01:31;9.13;;;7.50;;
317;SDS011;146;53.448;10.228;2023-06-26T12:03:59;7.20;;;6.50;;
317;SDS011;146;53.448;10.228;2023-06-26T12:06:31;7.30;;;6.70;;
317;SDS011;146;53.448;10.228;2023-06-26T12:09:07;6.93;;;6.37;;
317;SDS011;146;53.448;10.228;2023-06-26T12:11:47;7.10;;;6.43;;
317;SDS011;146;53.448;10.228;2023-06-26T12:14:17;7.23;;;6.63;;
317;SDS011;146;53.448;10.228;2023-06-26T12:16:47;5.23;;;4.60;;
317;SDS011;146;53.448;10.228;2023-06-26T12:19:14;6.40;;;5.70;;
317;SDS011;146;53.448;10.228;2023-06-26T12:21:47;6.80;;;4.30;;
317;SDS011;146;53.448;10.228;2023-06-26T12:24:20;4.80;;;4.10;;
317;SDS011;146;53.448;10.228;2023-06-26T12:26:54;6.30;;;3.90;;
317;SDS011;146;53.448;10.228;2023-06-26T12:29:28;5.90;;;4.77;;
317;SDS011;146;53.448;10.228;2023-06-26T12:32:00;6.93;;;3.83;;
317;SDS011;146;53.448;10.228;2023-06-26T12:34:31;5.47;;;4.00;;
317;SDS011;146;53.448;10.228;2023-06-26T12:37:02;4.83;;;3.47;;
317;SDS011;146;53.448;10.228;2023-06-26T12:39:44;4.27;;;3.37;;
317;SDS011;146;53.448;10.228;2023-06-26T12:42:13;5.13;;;3.40;;
317;SDS011;146;53.448;10.228;2023-06-26T12:44:44;2.67;;;2.40;;
317;SDS011;146;53.448;10.228;2023-06-26T12:47:25;3.40;;;3.10;;
317;SDS011;146;53.448;10.228;2023-06-26T12:49:53;4.43;;;3.20;;
317;SDS011;146;53.448;10.228;2023-06-26T12:52:22;4.13;;;3.07;;
317;SDS011;146;53.448;10.228;2023-06-26T12:54:52;6.20;;;3.03;;
317;SDS011;146;53.448;10.228;2023-06-26T12:57:20;3.20;;;2.90;;
317;SDS011;146;53.448;10.228;2023-06-26T12:59:50;6.33;;;3.40;;
317;SDS011;146;53.448;10.228;2023-06-26T13:02:25;4.33;;;2.63;;
317;SDS011;146;53.448;10.228;2023-06-26T13:04:52;2.67;;;2.47;;
317;SDS011;146;53.448;10.228;2023-06-26T13:07:19;5.57;;;3.13;;
317;SDS011;146;53.448;10.228;2023-06-26T13:09:47;4.10;;;2.93;;
317;SDS011;146;53.448;10.228;2023-06-26T13:12:17;7.30;;;3.30;;
317;SDS011;146;53.448;10.228;2023-06-26T13:14:47;5.80;;;3.10;;
317;SDS011;146;53.448;10.228;2023-06-26T13:17:23;4.40;;;2.77;;
317;SDS011;146;53.448;10.228;2023-06-26T13:19:49;3.10;;;2.67;;
317;SDS011;146;53.448;10.228;2023-06-26T13:22:16;3.47;;;3.27;;
317;SDS011;146;53.448;10.228;2023-06-26T13:24:43;4.60;;;3.07;;
317;SDS011;146;53.448;10.228;2023-06-26T13:27:12;5.27;;;3.40;;
317;SDS011;146;53.448;10.228;2023-06-26T13:29:41;3.80;;;2.70;;
317;SDS011;146;53.448;10.228;2023-06-26T13:32:11;3.13;;;2.77;;
317;SDS011;146;53.448;10.228;2023-06-26T13:34:40;2.97;;;2.67;;
317;SDS011;146;53.448;10.228;2023-06-26T13:37:08;3.80;;;2.73;;
317;SDS011;146;53.448;10.228;2023-06-26T13:39:35;3.10;;;2.80;;
317;SDS011;146;53.448;10.228;2023-06-26T13:42:06;2.57;;;2.37;;
317;SDS011;146;53.448;10.228;2023-06-26T13:44:38;3.63;;;3.33;;
317;SDS011;146;53.448;10.228;2023-06-26T13:47:05;3.10;;;2.50;;
317;SDS011;146;53.448;10.228;2023-06-26T13:49:32;7.40;;;2.80;;
317;SDS011;146;53.448;10.228;2023-06-26T13:52:00;2.90;;;2.40;;
317;SDS011;146;53.448;10.228;2023-06-26T13:54:27;4.77;;;2.13;;
317;SDS011;146;53.448;10.228;2023-06-26T13:57:06;2.77;;;2.40;;
317;SDS011;146;53.448;10.228;2023-06-26T13:59:33;3.90;;;2.70;;
317;SDS011;146;53.448;10.228;2023-06-26T14:02:04;2.37;;;2.17;;
317;SDS011;146;53.448;10.228;2023-06-26T14:04:31;3.07;;;2.40;;
317;SDS011;146;53.448;10.228;2023-06-26T14:06:58;4.10;;;2.27;;
317;SDS011;146;53.448;10.228;2023-06-26T14:09:25;4.43;;;2.00;;
317;SDS011;146;53.448;10.228;2023-06-26T14:11:52;3.50;;;2.40;;
317;SDS011;146;53.448;10.228;2023-06-26T14:14:21;3.60;;;2.97;;
317;SDS011;146;53.448;10.228;2023-06-26T14:16:48;4.03;;;2.87;;
317;SDS011;146;53.448;10.228;2023-06-26T14:19:28;2.70;;;2.37;;
317;SDS011;146;53.448;10.228;2023-06-26T14:21:55;2.93;;;2.60;;
317;SDS011;146;53.448;10.228;2023-06-26T14:24:22;3.10;;;1.73;;
317;SDS011;146;53.448;10.228;2023-06-26T14:26:49;2.43;;;2.17;;
317;SDS011;146;53.448;10.228;2023-06-26T14:29:24;2.07;;;1.93;;
317;SDS011;146;53.448;10.228;2023-06-26T14:31:57;2.57;;;2.10;;
317;SDS011;146;53.448;10.228;2023-06-26T14:34:23;4.10;;;2.40;;
317;SDS011;146;53.448;10.228;2023-06-26T14:36:52;3.30;;;2.10;;
317;SDS011;146;53.448;10.228;2023-06-26T14:39:18;2.70;;;2.23;;
317;SDS011;146;53.448;10.228;2023-06-26T14:41:47;2.53;;;1.90;;
317;SDS011;146;53.448;10.228;2023-06-26T14:44:17;2.33;;;2.13;;
317;SDS011;146;53.448;10.228;2023-06-26T14:46:49;3.20;;;2.20;;
317;SDS011;146;53.448;10.228;2023-06-26T14:49:16;3.13;;;2.10;;
317;SDS011;146;53.448;10.228;2023-06-26T14:51:54;4.73;;;2.33;;
317;SDS011;146;53.448;10.228;2023-06-26T14:54:21;2.30;;;2.20;;
317;SDS011;146;53.448;10.228;2023-06-26T14:56:52;4.63;;;2.53;;
317;SDS011;146;53.448;10.228;2023-06-26T14:59:18;6.90;;;2.33;;
317;SDS011;146;53.448;10.228;2023-06-26T15:01:45;2.87;;;2.20;;
317;SDS011;146;53.448;10.228;2023-06-26T15:04:18;2.63;;;1.80;;
317;SDS011;146;53.448;10.228;2023-06-26T15:06:49;3.43;;;1.90;;
317;SDS011;146;53.448;10.228;2023-06-26T15:09:18;2.23;;;2.03;;
317;SDS011;146;53.448;10.228;2023-06-26T15:11:47;2.73;;;2.20;;
317;SDS011;146;53.448;10.228;2023-06-26T15:14:23;2.10;;;1.73;;
317;SDS011;146;53.448;10.228;2023-06-26T15:16:50;1.63;;;1.53;;
317;SDS011;146;53.448;10.228;2023-06-26T15:19:24;1.90;;;1.63;;
317;SDS011;146;53.448;10.228;2023-06-26T15:21:51;2.73;;;1.90;;
317;SDS011;146;53.448;10.228;2023-06-26T15:24:28;1.83;;;1.70;;
317;SDS011;146;53.448;10.228;2023-06-26T15:26:58;2.70;;;1.90;;
317;SDS011;146;53.448;10.228;2023-06-26T15:29:27;1.67;;;1.57;;
317;SDS011;146;53.448;10.228;2023-06-26T15:31:54;2.13;;;1.83;;
317;SDS011;146;53.448;10.228;2023-06-26T15:34:28;3.03;;;1.90;;
317;SDS011;146;53.448;10.228;2023-06-26T15:36:58;1.30;;;1.20;;
317;SDS011;146;53.448;10.228;2023-06-26T15:39:24;1.93;;;1.53;;
317;SDS011;146;53.448;10.228;2023-06-26T15:41:58;2.40;;;1.47;;
317;SDS011;146;53.448;10.228;2023-06-26T15:44:25;1.80;;;1.70;;
317;SDS011;146;53.448;10.228;2023-06-26T15:46:52;2.40;;;1.40;;